Terminal Aerodrome Forecast
Issued by NWS Jacksonville, FL

Home | Current Version | Previous Version | Text Only | Print | Product List | Glossary On
Versions: 1 2 3 4 5 6 7 8 9 10 11 12 13 14 15 16 17 18 19 20 21 22
000
FTUS42 KJAX 300654 AAA
TAFGNV
TAF AMD
KGNV 300654Z 3007/3106 00000KT P6SM BKN008
     FM301300 21005KT P6SM SCT025
     FM301500 21008KT P6SM VCTS BKN050CB
      TEMPO 3015/3018 5SM TSRA BKN050CB
     FM301800 24008KT P6SM VCTS BKN050CB
      TEMPO 3018/3022 5SM TSRA BKN050CB=

USA.gov is the U.S. government's official web portal to all federal, state and local government web resources and services.